Terminal Aerodrome Forecast
Issued by NWS

Current Version | Previous Version | Graphics & Text | Print | Product List | Glossary On
Versions: 1 2 3 4 5 6 7 8 9 10 11 12 13 14 15 16 17 18
028
FTUS41 KPBZ 200520
TAFHLG
TAF
KHLG 200520Z 2006/2106 24003KT P6SM FEW250
     FM200800 00000KT 5SM BR SCT250
     FM201100 00000KT 2SM BR BKN015
     FM201300 00000KT 5SM BR SCT015
     FM201400 00000KT P6SM SCT250=

USA.gov is the U.S. government's official web portal to all federal, state and local government web resources and services.